NCAR-RAP Real-Time Weather Data

Output produced by METARs form (26 May 2022  07:05 UTC)
found at http://weather.rap.ucar.edu/surface/
 
KHFD 260653Z AUTO 17003KT 10SM CLR 11/07 A3035 RMK AO2 SLP277 T01110072
KHFD 260553Z AUTO VRB03KT 10SM CLR 12/07 A3036 RMK AO2 SLP280 T01170072 10172 20117 58004
KHFD 260453Z AUTO 18004KT 10SM CLR 12/07 A3037 RMK AO2 SLP283 T01220067 402330089
KHFD 260353Z 18005KT 10SM CLR 13/07 A3038 RMK AO2 SLP289 T01280067
KHFD 260253Z 19009KT 10SM CLR 13/06 A3037 RMK AO2 SLP284 T01330061 51012
KHFD 260153Z 19008KT 10SM CLR 14/06 A3037 RMK AO2 SLP284 T01440061
KHFD 260053Z 16008KT 10SM CLR 16/07 A3035 RMK AO2 SLP278 T01560067
KHFD 252353Z 19010KT 10SM CLR 17/07 A3034 RMK AO2 SLP272 T01720072 10233 20172 53007
KHFD 252253Z 20010KT 10SM FEW060 SCT200 20/08 A3032 RMK AO2 SLP265 T02000078
KHFD 252153Z 21008KT 180V240 10SM FEW065 SCT200 22/08 A3031 RMK AO2 SLP264 T02220083
KHFD 252053Z 17009KT 10SM FEW065 SCT200 23/08 A3031 RMK AO2 SLP265 T02280083 58010
KHFD 251953Z 18010G18KT 10SM CLR 23/09 A3033 RMK AO2 SLP269 T02330094
KHFD 251853Z 20008KT 10SM CLR 23/09 A3034 RMK AO2 SLP274 T02280094
KHFD 251753Z 18004KT 10SM CLR 23/10 A3034 RMK AO2 SLP275 T02280100 10228 20133 58018
KHFD 251653Z 18006KT 10SM CLR 22/09 A3037 RMK AO2 SLP283 T02170089
KHFD 251553Z COR 22006KT 10SM CLR 21/08 A3038
KHFD 251453Z VRB03KT 10SM CLR 19/08 A3040 RMK AO2 SLP292 T01890078 58003
KHFD 251353Z VRB05KT 10SM CLR 18/08 A3039 RMK AO2 SLP292 T01780083
KHFD 251253Z 16003KT 10SM CLR 16/08 A3041 RMK AO2 SLP296 T01560083
KHFD 251153Z 00000KT 10SM CLR 13/08 A3040 RMK AO2 SLP295 T01330083 10133 20089 53012
KHFD 251053Z 00000KT 10SM CLR 11/08 A3039 RMK AO2 SLP290 T01110083
KHFD 250953Z 00000KT 10SM CLR 09/07 A3037 RMK AO2 SLP284 T00940072
KHFD 250853Z AUTO 00000KT 10SM CLR 09/08 A3037 RMK AO2 SLP284 T00940078 53007
KHFD 250753Z AUTO 00000KT 10SM CLR 10/08 A3036 RMK AO2 SLP279 T01000083
KHFD 250653Z AUTO 00000KT 10SM CLR 11/09 A3035 RMK AO2 SLP278 T01110089
KHFD 250553Z AUTO 00000KT 10SM CLR 11/08 A3035 RMK AO2 SLP277 T01110078 10183 20111 50001
KHFD 250453Z AUTO 00000KT 10SM CLR 12/07 A3036 RMK AO2 SLP279 T01220072 402330122
KHFD 250353Z 17003KT 10SM CLR 12/07 A3036 RMK AO2 SLP279 T01220067
KHFD 250253Z VRB04KT 10SM CLR 13/07 A3035 RMK AO2 SLP276 T01330067 51020
KHFD 250153Z 17007KT 10SM CLR 14/09 A3034 RMK AO2 SLP274 T01440089
KHFD 250053Z 17008KT 10SM CLR 17/07 A3032 RMK AO2 SLP265 T01670067
KHFD 242353Z 16008KT 10SM CLR 18/07 A3029 RMK AO2 SLP255 T01830072 10233 20183 53006
KHFD 242253Z 20007KT 10SM FEW060 BKN075 20/07 A3027 RMK AO2 SLP250 T02000072
KHFD 242153Z 20007KT 10SM BKN065 BKN075 21/08 A3027 RMK AO2 SLP249 T02060078
KHFD 242053Z 17006KT 10SM BKN065 22/07 A3027 RMK AO2 SLP249 T02170067 56007
KHFD 241953Z 15004KT 10SM FEW065 22/06 A3027 RMK AO2 SLP251 T02170061
KHFD 241853Z 16006KT 10SM CLR 21/07 A3028 RMK AO2 SLP253 T02110067
KHFD 241753Z 24005KT 10SM SCT055 21/07 A3029 RMK AO2 SLP256 T02110072 10211 20150 58018
KHFD 241653Z VRB04KT 10SM CLR 20/07 A3031 RMK AO2 SLP262 T02000067
KHFD 241553Z 07006KT 10SM CLR 19/07 A3033 RMK AO2 SLP271 T01890072
KHFD 241453Z 02004KT 10SM CLR 18/07 A3034 RMK AO2 SLP274 T01780067 51005
KHFD 241353Z VRB04KT 10SM CLR 17/06 A3034 RMK AO2 SLP273 T01670056
KHFD 241253Z 04005KT 10SM CLR 16/06 A3034 RMK AO2 SLP274 T01560061
KHFD 241153Z 04008KT 10SM CLR 15/06 A3033 RMK AO2 SLP269 T01500061 10167 20139 53016
KHFD 241053Z 01008KT 10SM CLR 14/06 A3031 RMK AO2 SLP262 T01440056
KHFD 240953Z 01008KT 10SM CLR 14/05 A3029 RMK AO2 SLP256 T01440050
KHFD 240853Z AUTO 01008KT 10SM CLR 15/05 A3028 RMK AO2 SLP253 T01500050 51007
KHFD 240753Z AUTO 02005KT 10SM SCT065 SCT080 SCT120 14/08 A3028 RMK AO2 SLP253 T01440078